Terminal Aerodrome Forecast
Issued by NWS

Home | Current Version | Previous Version | Text Only | Print | Product List | Glossary On
Versions: 1 2 3 4 5 6 7 8 9 10 11 12 13 14 15 16
000
FTAK31 PAJN 271740
TAFAJN
TAF
PAJN 271740Z 2718/2818 09007KT P6SM VCSH FEW005 BKN015 OVC040
      TEMPO 2718/2722 SCT015 OVC045
     FM272200 24006KT P6SM SCT015 OVC050=

USA.gov is the U.S. government's official web portal to all federal, state and local government web resources and services.